KSBN/SBN METAR and TAF weather

Enter ICAO airport designator
Station Type Date Time Source
KSBN METAR 2019/06/19 06:54 UTC NOAA

KSBN 190654Z AUTO 00000KT 10SM FEW044 17/15 A2985 RMK AO2 SLP103 T01670150


Station Type Date Time Source
KSBN Decoded METAR 2019/06/19 06:54 UTC NOAA

SOUTH BEND REGIONAL AIRPORT, IN, United States (KSBN) 41-42N 086-19W 237M
Jun 19, 2019 - 02:54 AM EDT / 2019.06.19 0654 UTC
Wind: Calm:0
Visibility: 10 mile(s):0
Sky conditions: mostly clear
Temperature: 62.1 F (16.7 C)
Dew Point: 59.0 F (15.0 C)
Relative Humidity: 89%
Pressure (altimeter): 29.85 in. Hg (1010 hPa)
ob: KSBN 190654Z AUTO 00000KT 10SM FEW044 17/15 A2985 RMK AO2 SLP103 T01670150
cycle: 7

Station Type Date Time Source
KSBN TAF 2019/06/19 06:27 UTC NOAA

TAF KSBN 190524Z 1906/2006 00000KT P6SM SCT100
FM192000 VRB04KT P6SM VCSH BKN070
FM200300 01005KT 6SM -SHRA BR OVC035

Example: see airport list